sensor_id;sensor_type;location;lat;lon;timestamp;temperature;humidity
38788;DHT22;24536;45.488;12.238;2022-12-20T00:01:10;6.30;84.40
38788;DHT22;24536;45.488;12.238;2022-12-20T00:03:36;6.30;84.10
38788;DHT22;24536;45.488;12.238;2022-12-20T00:06:02;6.30;83.70
38788;DHT22;24536;45.488;12.238;2022-12-20T00:08:28;6.30;83.70
38788;DHT22;24536;45.488;12.238;2022-12-20T00:10:53;6.20;84.20
38788;DHT22;24536;45.488;12.238;2022-12-20T00:13:19;6.20;84.70
38788;DHT22;24536;45.488;12.238;2022-12-20T00:15:45;6.20;84.40
38788;DHT22;24536;45.488;12.238;2022-12-20T00:18:10;6.20;84.50
38788;DHT22;24536;45.488;12.238;2022-12-20T00:20:36;6.20;84.10
38788;DHT22;24536;45.488;12.238;2022-12-20T00:25:28;6.30;84.00
38788;DHT22;24536;45.488;12.238;2022-12-20T00:27:54;6.30;84.50
38788;DHT22;24536;45.488;12.238;2022-12-20T00:30:19;6.30;84.40
38788;DHT22;24536;45.488;12.238;2022-12-20T00:32:45;6.30;84.40
38788;DHT22;24536;45.488;12.238;2022-12-20T00:35:11;6.20;84.10
38788;DHT22;24536;45.488;12.238;2022-12-20T00:37:38;6.20;84.00
38788;DHT22;24536;45.488;12.238;2022-12-20T00:40:04;6.30;84.50
38788;DHT22;24536;45.488;12.238;2022-12-20T00:44:56;6.20;84.10
38788;DHT22;24536;45.488;12.238;2022-12-20T00:47:22;6.20;84.80
38788;DHT22;24536;45.488;12.238;2022-12-20T00:49:48;6.20;84.80
38788;DHT22;24536;45.488;12.238;2022-12-20T00:52:13;6.20;84.70
38788;DHT22;24536;45.488;12.238;2022-12-20T00:54:39;6.20;84.90
38788;DHT22;24536;45.488;12.238;2022-12-20T00:57:04;6.20;85.10
38788;DHT22;24536;45.488;12.238;2022-12-20T00:59:32;6.20;84.70
38788;DHT22;24536;45.488;12.238;2022-12-20T01:01:58;6.20;85.30
38788;DHT22;24536;45.488;12.238;2022-12-20T01:04:24;6.20;85.30
38788;DHT22;24536;45.488;12.238;2022-12-20T01:06:49;6.10;85.30
38788;DHT22;24536;45.488;12.238;2022-12-20T01:09:15;6.20;85.30
38788;DHT22;24536;45.488;12.238;2022-12-20T01:11:41;6.20;85.30
38788;DHT22;24536;45.488;12.238;2022-12-20T01:14:11;6.10;84.90
38788;DHT22;24536;45.488;12.238;2022-12-20T01:16:42;6.20;85.40
38788;DHT22;24536;45.488;12.238;2022-12-20T01:19:11;6.20;85.40
38788;DHT22;24536;45.488;12.238;2022-12-20T01:21:37;6.20;85.40
38788;DHT22;24536;45.488;12.238;2022-12-20T01:24:12;6.10;85.20
38788;DHT22;24536;45.488;12.238;2022-12-20T01:26:38;6.20;85.60
38788;DHT22;24536;45.488;12.238;2022-12-20T01:29:03;6.20;85.20
38788;DHT22;24536;45.488;12.238;2022-12-20T01:31:29;6.20;85.70
38788;DHT22;24536;45.488;12.238;2022-12-20T01:33:55;6.20;85.70
38788;DHT22;24536;45.488;12.238;2022-12-20T01:36:24;6.30;85.80
38788;DHT22;24536;45.488;12.238;2022-12-20T01:38:54;6.20;85.80
38788;DHT22;24536;45.488;12.238;2022-12-20T01:41:21;6.30;85.90
38788;DHT22;24536;45.488;12.238;2022-12-20T01:43:48;6.30;85.80
38788;DHT22;24536;45.488;12.238;2022-12-20T01:46:15;6.30;85.70
38788;DHT22;24536;45.488;12.238;2022-12-20T01:48:44;6.40;85.70
38788;DHT22;24536;45.488;12.238;2022-12-20T01:51:11;6.30;85.60
38788;DHT22;24536;45.488;12.238;2022-12-20T01:53:37;6.30;85.30
38788;DHT22;24536;45.488;12.238;2022-12-20T01:56:04;6.30;85.80
38788;DHT22;24536;45.488;12.238;2022-12-20T01:58:31;6.30;85.90
38788;DHT22;24536;45.488;12.238;2022-12-20T02:00:58;6.30;85.80
38788;DHT22;24536;45.488;12.238;2022-12-20T02:03:24;6.30;85.90
38788;DHT22;24536;45.488;12.238;2022-12-20T02:05:50;6.30;86.20
38788;DHT22;24536;45.488;12.238;2022-12-20T02:08:18;6.30;86.40
38788;DHT22;24536;45.488;12.238;2022-12-20T02:16:21;6.20;86.60
38788;DHT22;24536;45.488;12.238;2022-12-20T02:19:03;6.30;86.70
38788;DHT22;24536;45.488;12.238;2022-12-20T02:21:40;6.30;86.30
38788;DHT22;24536;45.488;12.238;2022-12-20T02:24:30;6.30;86.70
38788;DHT22;24536;45.488;12.238;2022-12-20T02:27:27;6.40;86.60
38788;DHT22;24536;45.488;12.238;2022-12-20T02:32:59;6.30;86.60
38788;DHT22;24536;45.488;12.238;2022-12-20T02:35:31;6.30;86.70
38788;DHT22;24536;45.488;12.238;2022-12-20T02:38:00;6.30;86.70
38788;DHT22;24536;45.488;12.238;2022-12-20T02:40:31;6.30;86.70
38788;DHT22;24536;45.488;12.238;2022-12-20T02:43:00;6.30;86.60
38788;DHT22;24536;45.488;12.238;2022-12-20T02:45:31;6.40;86.60
38788;DHT22;24536;45.488;12.238;2022-12-20T02:48:10;6.40;86.60
38788;DHT22;24536;45.488;12.238;2022-12-20T02:50:39;6.40;86.70
38788;DHT22;24536;45.488;12.238;2022-12-20T02:53:07;6.30;86.70
38788;DHT22;24536;45.488;12.238;2022-12-20T02:55:58;6.30;86.30
38788;DHT22;24536;45.488;12.238;2022-12-20T02:59:00;6.30;86.70
38788;DHT22;24536;45.488;12.238;2022-12-20T03:01:31;6.40;86.80
38788;DHT22;24536;45.488;12.238;2022-12-20T03:03:58;6.30;86.70
38788;DHT22;24536;45.488;12.238;2022-12-20T03:06:24;6.30;86.70
38788;DHT22;24536;45.488;12.238;2022-12-20T03:08:50;6.20;86.70
38788;DHT22;24536;45.488;12.238;2022-12-20T03:11:16;6.20;87.00
38788;DHT22;24536;45.488;12.238;2022-12-20T03:13:42;6.10;87.40
38788;DHT22;24536;45.488;12.238;2022-12-20T03:16:08;6.10;87.30
38788;DHT22;24536;45.488;12.238;2022-12-20T03:18:35;6.10;86.80
38788;DHT22;24536;45.488;12.238;2022-12-20T03:21:01;6.20;87.20
38788;DHT22;24536;45.488;12.238;2022-12-20T03:23:27;6.20;87.80
38788;DHT22;24536;45.488;12.238;2022-12-20T03:25:53;6.10;86.70
38788;DHT22;24536;45.488;12.238;2022-12-20T03:28:19;6.20;87.40
38788;DHT22;24536;45.488;12.238;2022-12-20T03:30:46;6.10;87.60
38788;DHT22;24536;45.488;12.238;2022-12-20T03:33:11;6.10;87.60
38788;DHT22;24536;45.488;12.238;2022-12-20T03:35:37;6.10;87.40
38788;DHT22;24536;45.488;12.238;2022-12-20T03:38:03;6.20;87.60
38788;DHT22;24536;45.488;12.238;2022-12-20T03:40:29;6.20;87.60
38788;DHT22;24536;45.488;12.238;2022-12-20T03:42:54;6.30;87.30
38788;DHT22;24536;45.488;12.238;2022-12-20T03:45:20;6.30;87.20
38788;DHT22;24536;45.488;12.238;2022-12-20T03:47:46;6.20;86.80
38788;DHT22;24536;45.488;12.238;2022-12-20T03:52:38;6.30;86.50
38788;DHT22;24536;45.488;12.238;2022-12-20T03:55:04;6.30;86.70
38788;DHT22;24536;45.488;12.238;2022-12-20T03:57:30;6.20;86.00
38788;DHT22;24536;45.488;12.238;2022-12-20T03:59:56;6.10;86.10
38788;DHT22;24536;45.488;12.238;2022-12-20T04:02:22;6.10;86.50
38788;DHT22;24536;45.488;12.238;2022-12-20T04:04:48;6.20;86.60
38788;DHT22;24536;45.488;12.238;2022-12-20T04:07:14;6.20;86.50
38788;DHT22;24536;45.488;12.238;2022-12-20T04:09:40;6.20;86.50
38788;DHT22;24536;45.488;12.238;2022-12-20T04:14:32;6.20;86.00
38788;DHT22;24536;45.488;12.238;2022-12-20T04:16:57;6.20;86.40
38788;DHT22;24536;45.488;12.238;2022-12-20T04:19:23;6.20;86.30
38788;DHT22;24536;45.488;12.238;2022-12-20T04:21:49;6.30;86.40
38788;DHT22;24536;45.488;12.238;2022-12-20T04:24:15;6.30;86.30
38788;DHT22;24536;45.488;12.238;2022-12-20T04:26:41;6.30;85.90
38788;DHT22;24536;45.488;12.238;2022-12-20T04:29:07;6.30;85.80
38788;DHT22;24536;45.488;12.238;2022-12-20T04:31:32;6.30;86.20
38788;DHT22;24536;45.488;12.238;2022-12-20T04:33:58;6.30;86.00
38788;DHT22;24536;45.488;12.238;2022-12-20T04:36:24;6.30;86.00
38788;DHT22;24536;45.488;12.238;2022-12-20T04:41:15;6.30;86.10
38788;DHT22;24536;45.488;12.238;2022-12-20T04:43:51;6.30;86.50
38788;DHT22;24536;45.488;12.238;2022-12-20T04:46:17;6.40;86.80
38788;DHT22;24536;45.488;12.238;2022-12-20T04:48:43;6.30;86.40
38788;DHT22;24536;45.488;12.238;2022-12-20T04:51:09;6.30;87.00
38788;DHT22;24536;45.488;12.238;2022-12-20T04:53:35;6.30;86.90
38788;DHT22;24536;45.488;12.238;2022-12-20T04:56:28;6.30;86.90
38788;DHT22;24536;45.488;12.238;2022-12-20T04:58:56;6.20;86.80
38788;DHT22;24536;45.488;12.238;2022-12-20T05:01:22;6.10;86.90
38788;DHT22;24536;45.488;12.238;2022-12-20T05:03:48;6.10;87.00
38788;DHT22;24536;45.488;12.238;2022-12-20T05:06:14;6.10;86.90
38788;DHT22;24536;45.488;12.238;2022-12-20T05:08:41;6.20;86.90
38788;DHT22;24536;45.488;12.238;2022-12-20T05:11:07;6.10;86.90
38788;DHT22;24536;45.488;12.238;2022-12-20T05:13:33;6.10;86.90
38788;DHT22;24536;45.488;12.238;2022-12-20T05:15:59;6.10;86.80
38788;DHT22;24536;45.488;12.238;2022-12-20T05:18:26;6.10;86.90
38788;DHT22;24536;45.488;12.238;2022-12-20T05:20:57;6.10;86.80
38788;DHT22;24536;45.488;12.238;2022-12-20T05:23:42;6.10;86.60
38788;DHT22;24536;45.488;12.238;2022-12-20T05:26:30;6.10;86.70
38788;DHT22;24536;45.488;12.238;2022-12-20T05:28:56;6.10;86.80
38788;DHT22;24536;45.488;12.238;2022-12-20T05:31:21;6.10;86.70
38788;DHT22;24536;45.488;12.238;2022-12-20T05:33:47;6.10;86.70
38788;DHT22;24536;45.488;12.238;2022-12-20T05:36:13;6.10;86.80
38788;DHT22;24536;45.488;12.238;2022-12-20T05:38:38;6.00;86.80
38788;DHT22;24536;45.488;12.238;2022-12-20T05:41:04;6.00;86.70
38788;DHT22;24536;45.488;12.238;2022-12-20T05:43:31;6.00;86.20
38788;DHT22;24536;45.488;12.238;2022-12-20T05:45:56;5.90;86.60
38788;DHT22;24536;45.488;12.238;2022-12-20T05:48:22;5.90;86.70
38788;DHT22;24536;45.488;12.238;2022-12-20T05:50:48;5.90;86.80
38788;DHT22;24536;45.488;12.238;2022-12-20T05:53:15;6.00;86.80
38788;DHT22;24536;45.488;12.238;2022-12-20T05:55:47;6.00;86.70
38788;DHT22;24536;45.488;12.238;2022-12-20T05:58:13;6.00;86.60
38788;DHT22;24536;45.488;12.238;2022-12-20T06:00:40;5.90;86.30
38788;DHT22;24536;45.488;12.238;2022-12-20T06:03:07;6.00;86.60
38788;DHT22;24536;45.488;12.238;2022-12-20T06:05:35;6.00;87.00
38788;DHT22;24536;45.488;12.238;2022-12-20T06:08:01;6.00;86.80
38788;DHT22;24536;45.488;12.238;2022-12-20T06:10:27;6.00;86.80
38788;DHT22;24536;45.488;12.238;2022-12-20T06:12:53;6.10;86.60
38788;DHT22;24536;45.488;12.238;2022-12-20T06:15:18;6.20;86.90
38788;DHT22;24536;45.488;12.238;2022-12-20T06:17:45;6.20;87.00
38788;DHT22;24536;45.488;12.238;2022-12-20T06:20:10;6.30;85.70
38788;DHT22;24536;45.488;12.238;2022-12-20T06:22:37;6.30;85.60
38788;DHT22;24536;45.488;12.238;2022-12-20T06:25:03;6.30;85.40
38788;DHT22;24536;45.488;12.238;2022-12-20T06:27:29;6.30;85.70
38788;DHT22;24536;45.488;12.238;2022-12-20T06:29:55;6.40;85.40
38788;DHT22;24536;45.488;12.238;2022-12-20T06:32:20;6.40;85.40
38788;DHT22;24536;45.488;12.238;2022-12-20T06:34:46;6.40;85.50
38788;DHT22;24536;45.488;12.238;2022-12-20T06:37:12;6.50;85.40
38788;DHT22;24536;45.488;12.238;2022-12-20T06:39:37;6.60;85.00
38788;DHT22;24536;45.488;12.238;2022-12-20T06:42:04;6.60;85.10
38788;DHT22;24536;45.488;12.238;2022-12-20T06:44:29;6.60;84.80
38788;DHT22;24536;45.488;12.238;2022-12-20T06:46:55;6.70;84.80
38788;DHT22;24536;45.488;12.238;2022-12-20T06:49:21;6.70;84.70
38788;DHT22;24536;45.488;12.238;2022-12-20T06:51:47;6.70;84.50
38788;DHT22;24536;45.488;12.238;2022-12-20T06:54:13;6.70;84.40
38788;DHT22;24536;45.488;12.238;2022-12-20T06:56:38;6.70;84.50
38788;DHT22;24536;45.488;12.238;2022-12-20T06:59:04;6.70;84.60
38788;DHT22;24536;45.488;12.238;2022-12-20T07:01:30;6.60;84.60
38788;DHT22;24536;45.488;12.238;2022-12-20T07:03:56;6.60;85.00
38788;DHT22;24536;45.488;12.238;2022-12-20T07:06:22;6.60;85.10
38788;DHT22;24536;45.488;12.238;2022-12-20T07:08:47;6.60;85.20
38788;DHT22;24536;45.488;12.238;2022-12-20T07:11:13;6.50;84.90
38788;DHT22;24536;45.488;12.238;2022-12-20T07:13:39;6.50;85.10
38788;DHT22;24536;45.488;12.238;2022-12-20T07:16:05;6.50;85.60
38788;DHT22;24536;45.488;12.238;2022-12-20T07:18:30;6.40;85.10
38788;DHT22;24536;45.488;12.238;2022-12-20T07:21:01;6.10;85.10
38788;DHT22;24536;45.488;12.238;2022-12-20T07:23:27;6.30;85.20
38788;DHT22;24536;45.488;12.238;2022-12-20T07:25:54;6.30;85.60
38788;DHT22;24536;45.488;12.238;2022-12-20T07:28:21;6.40;85.50
38788;DHT22;24536;45.488;12.238;2022-12-20T07:30:47;6.40;85.40
38788;DHT22;24536;45.488;12.238;2022-12-20T07:33:13;6.40;85.00
38788;DHT22;24536;45.488;12.238;2022-12-20T07:35:39;6.50;85.40
38788;DHT22;24536;45.488;12.238;2022-12-20T07:38:04;6.60;85.30
38788;DHT22;24536;45.488;12.238;2022-12-20T07:40:30;6.60;84.80
38788;DHT22;24536;45.488;12.238;2022-12-20T07:45:22;6.60;84.20
38788;DHT22;24536;45.488;12.238;2022-12-20T07:47:48;6.60;84.70
38788;DHT22;24536;45.488;12.238;2022-12-20T07:50:14;6.60;84.80
38788;DHT22;24536;45.488;12.238;2022-12-20T07:52:42;6.60;85.50
38788;DHT22;24536;45.488;12.238;2022-12-20T07:55:09;6.70;85.20
38788;DHT22;24536;45.488;12.238;2022-12-20T07:57:54;6.70;84.70
38788;DHT22;24536;45.488;12.238;2022-12-20T08:00:21;6.80;84.80
38788;DHT22;24536;45.488;12.238;2022-12-20T08:02:56;6.90;85.20
38788;DHT22;24536;45.488;12.238;2022-12-20T08:05:23;6.80;85.20
38788;DHT22;24536;45.488;12.238;2022-12-20T08:07:52;6.90;84.70
38788;DHT22;24536;45.488;12.238;2022-12-20T08:10:19;6.90;85.00
38788;DHT22;24536;45.488;12.238;2022-12-20T08:12:45;6.90;84.50
38788;DHT22;24536;45.488;12.238;2022-12-20T08:15:12;6.90;84.20
38788;DHT22;24536;45.488;12.238;2022-12-20T08:17:38;6.90;83.50
38788;DHT22;24536;45.488;12.238;2022-12-20T08:20:04;6.90;84.10
38788;DHT22;24536;45.488;12.238;2022-12-20T08:22:31;6.80;84.00
38788;DHT22;24536;45.488;12.238;2022-12-20T08:24:57;6.80;84.00
38788;DHT22;24536;45.488;12.238;2022-12-20T08:27:22;6.90;84.40
38788;DHT22;24536;45.488;12.238;2022-12-20T08:29:48;6.80;83.80
38788;DHT22;24536;45.488;12.238;2022-12-20T08:32:14;6.80;84.20
38788;DHT22;24536;45.488;12.238;2022-12-20T08:34:40;6.80;84.20
38788;DHT22;24536;45.488;12.238;2022-12-20T08:37:06;6.80;84.30
38788;DHT22;24536;45.488;12.238;2022-12-20T08:39:32;6.90;84.20
38788;DHT22;24536;45.488;12.238;2022-12-20T08:41:57;6.90;84.10
38788;DHT22;24536;45.488;12.238;2022-12-20T08:44:23;7.00;84.10
38788;DHT22;24536;45.488;12.238;2022-12-20T08:46:50;7.00;83.80
38788;DHT22;24536;45.488;12.238;2022-12-20T08:49:16;7.00;84.10
38788;DHT22;24536;45.488;12.238;2022-12-20T08:54:08;7.10;84.10
38788;DHT22;24536;45.488;12.238;2022-12-20T08:56:34;7.10;84.00
38788;DHT22;24536;45.488;12.238;2022-12-20T09:01:25;7.20;83.80
38788;DHT22;24536;45.488;12.238;2022-12-20T09:03:51;7.20;84.40
38788;DHT22;24536;45.488;12.238;2022-12-20T09:06:19;7.20;84.50
38788;DHT22;24536;45.488;12.238;2022-12-20T09:08:46;7.30;84.20
38788;DHT22;24536;45.488;12.238;2022-12-20T09:11:18;7.30;84.60
38788;DHT22;24536;45.488;12.238;2022-12-20T09:13:45;7.30;84.60
38788;DHT22;24536;45.488;12.238;2022-12-20T09:16:13;7.40;84.10
38788;DHT22;24536;45.488;12.238;2022-12-20T09:18:40;7.30;84.40
38788;DHT22;24536;45.488;12.238;2022-12-20T09:21:07;7.40;84.30
38788;DHT22;24536;45.488;12.238;2022-12-20T09:23:34;7.50;84.10
38788;DHT22;24536;45.488;12.238;2022-12-20T09:26:05;7.50;84.50
38788;DHT22;24536;45.488;12.238;2022-12-20T09:28:34;7.50;84.20
38788;DHT22;24536;45.488;12.238;2022-12-20T09:31:00;7.60;84.30
38788;DHT22;24536;45.488;12.238;2022-12-20T09:33:27;7.60;84.30
38788;DHT22;24536;45.488;12.238;2022-12-20T09:35:53;7.60;84.30
38788;DHT22;24536;45.488;12.238;2022-12-20T09:38:19;7.60;83.60
38788;DHT22;24536;45.488;12.238;2022-12-20T09:40:47;7.60;83.40
38788;DHT22;24536;45.488;12.238;2022-12-20T09:43:15;7.60;83.70
38788;DHT22;24536;45.488;12.238;2022-12-20T09:45:41;7.60;83.50
38788;DHT22;24536;45.488;12.238;2022-12-20T09:48:17;7.70;84.00
38788;DHT22;24536;45.488;12.238;2022-12-20T09:56:25;7.70;83.10
38788;DHT22;24536;45.488;12.238;2022-12-20T10:01:25;7.60;83.50
38788;DHT22;24536;45.488;12.238;2022-12-20T10:03:52;7.70;83.50
38788;DHT22;24536;45.488;12.238;2022-12-20T10:09:03;7.70;82.80
38788;DHT22;24536;45.488;12.238;2022-12-20T10:11:44;7.70;83.30
38788;DHT22;24536;45.488;12.238;2022-12-20T10:14:29;7.70;83.20
38788;DHT22;24536;45.488;12.238;2022-12-20T10:17:04;7.80;83.10
38788;DHT22;24536;45.488;12.238;2022-12-20T10:22:15;7.80;82.60
38788;DHT22;24536;45.488;12.238;2022-12-20T10:24:50;7.80;83.00
38788;DHT22;24536;45.488;12.238;2022-12-20T10:27:19;7.70;81.40
38788;DHT22;24536;45.488;12.238;2022-12-20T10:29:47;7.70;82.10
38788;DHT22;24536;45.488;12.238;2022-12-20T10:32:20;7.70;82.30
38788;DHT22;24536;45.488;12.238;2022-12-20T10:37:35;7.80;82.70
38788;DHT22;24536;45.488;12.238;2022-12-20T10:40:01;7.90;82.80
38788;DHT22;24536;45.488;12.238;2022-12-20T10:42:38;7.90;82.90
38788;DHT22;24536;45.488;12.238;2022-12-20T10:45:32;7.90;82.80
38788;DHT22;24536;45.488;12.238;2022-12-20T10:48:00;7.80;81.30
38788;DHT22;24536;45.488;12.238;2022-12-20T10:50:27;7.90;82.20
38788;DHT22;24536;45.488;12.238;2022-12-20T10:55:41;7.90;81.80
38788;DHT22;24536;45.488;12.238;2022-12-20T10:58:31;7.80;80.70
38788;DHT22;24536;45.488;12.238;2022-12-20T11:01:19;7.90;81.60
38788;DHT22;24536;45.488;12.238;2022-12-20T11:04:20;7.90;81.20
38788;DHT22;24536;45.488;12.238;2022-12-20T11:06:49;7.90;81.00
38788;DHT22;24536;45.488;12.238;2022-12-20T11:14:30;8.00;80.50
38788;DHT22;24536;45.488;12.238;2022-12-20T11:16:57;8.00;80.90
38788;DHT22;24536;45.488;12.238;2022-12-20T11:19:35;8.10;81.20
38788;DHT22;24536;45.488;12.238;2022-12-20T11:25:17;8.10;81.10
38788;DHT22;24536;45.488;12.238;2022-12-20T11:28:16;8.10;81.40
38788;DHT22;24536;45.488;12.238;2022-12-20T11:40:00;8.30;80.00
38788;DHT22;24536;45.488;12.238;2022-12-20T11:42:54;8.20;80.10
38788;DHT22;24536;45.488;12.238;2022-12-20T11:45:41;8.20;79.80
38788;DHT22;24536;45.488;12.238;2022-12-20T11:48:16;8.20;79.40
38788;DHT22;24536;45.488;12.238;2022-12-20T11:51:00;8.20;79.80
38788;DHT22;24536;45.488;12.238;2022-12-20T11:53:31;8.20;79.70
38788;DHT22;24536;45.488;12.238;2022-12-20T11:56:16;8.20;79.30
38788;DHT22;24536;45.488;12.238;2022-12-20T12:01:15;8.20;79.60
38788;DHT22;24536;45.488;12.238;2022-12-20T12:04:02;8.20;80.00
38788;DHT22;24536;45.488;12.238;2022-12-20T12:06:33;8.30;80.30
38788;DHT22;24536;45.488;12.238;2022-12-20T12:09:17;8.40;80.10
38788;DHT22;24536;45.488;12.238;2022-12-20T12:12:04;8.40;80.00
38788;DHT22;24536;45.488;12.238;2022-12-20T12:17:23;8.60;79.70
38788;DHT22;24536;45.488;12.238;2022-12-20T12:19:53;8.60;79.10
38788;DHT22;24536;45.488;12.238;2022-12-20T12:22:26;8.60;79.50
38788;DHT22;24536;45.488;12.238;2022-12-20T12:24:57;8.70;79.90
38788;DHT22;24536;45.488;12.238;2022-12-20T12:27:26;8.70;80.30
38788;DHT22;24536;45.488;12.238;2022-12-20T12:29:53;8.80;79.10
38788;DHT22;24536;45.488;12.238;2022-12-20T12:32:59;8.80;79.60
38788;DHT22;24536;45.488;12.238;2022-12-20T12:44:03;8.80;77.80
38788;DHT22;24536;45.488;12.238;2022-12-20T12:46:46;8.70;77.80
38788;DHT22;24536;45.488;12.238;2022-12-20T12:49:21;8.80;78.40
38788;DHT22;24536;45.488;12.238;2022-12-20T12:51:52;8.80;78.70
38788;DHT22;24536;45.488;12.238;2022-12-20T12:54:39;8.90;78.40
38788;DHT22;24536;45.488;12.238;2022-12-20T12:57:15;8.90;77.90
38788;DHT22;24536;45.488;12.238;2022-12-20T12:59:44;8.90;78.30
38788;DHT22;24536;45.488;12.238;2022-12-20T13:07:40;9.20;78.30
38788;DHT22;24536;45.488;12.238;2022-12-20T13:17:58;9.30;77.70
38788;DHT22;24536;45.488;12.238;2022-12-20T13:20:27;9.30;76.30
38788;DHT22;24536;45.488;12.238;2022-12-20T13:23:25;9.30;77.10
38788;DHT22;24536;45.488;12.238;2022-12-20T13:25:51;9.20;76.70
38788;DHT22;24536;45.488;12.238;2022-12-20T13:33:42;9.20;76.40
38788;DHT22;24536;45.488;12.238;2022-12-20T13:43:47;9.10;76.50
38788;DHT22;24536;45.488;12.238;2022-12-20T13:51:23;9.20;77.20
38788;DHT22;24536;45.488;12.238;2022-12-20T13:54:07;9.10;76.60
38788;DHT22;24536;45.488;12.238;2022-12-20T13:57:00;9.10;76.60
38788;DHT22;24536;45.488;12.238;2022-12-20T13:59:31;9.20;76.90
38788;DHT22;24536;45.488;12.238;2022-12-20T14:01:59;9.20;76.90
38788;DHT22;24536;45.488;12.238;2022-12-20T14:04:36;9.20;76.40
38788;DHT22;24536;45.488;12.238;2022-12-20T14:07:03;9.20;76.70
38788;DHT22;24536;45.488;12.238;2022-12-20T14:09:34;9.10;76.30
38788;DHT22;24536;45.488;12.238;2022-12-20T14:12:05;9.10;76.40
38788;DHT22;24536;45.488;12.238;2022-12-20T14:14:45;9.20;77.10
38788;DHT22;24536;45.488;12.238;2022-12-20T14:17:25;9.20;77.10
38788;DHT22;24536;45.488;12.238;2022-12-20T14:20:13;9.10;76.90
38788;DHT22;24536;45.488;12.238;2022-12-20T14:28:30;9.00;77.20
38788;DHT22;24536;45.488;12.238;2022-12-20T14:30:58;9.00;77.40
38788;DHT22;24536;45.488;12.238;2022-12-20T14:33:39;9.00;77.60
38788;DHT22;24536;45.488;12.238;2022-12-20T14:36:09;9.00;77.90
38788;DHT22;24536;45.488;12.238;2022-12-20T14:38:35;9.00;77.70
38788;DHT22;24536;45.488;12.238;2022-12-20T14:41:00;9.00;78.10
38788;DHT22;24536;45.488;12.238;2022-12-20T14:43:35;8.90;77.60
38788;DHT22;24536;45.488;12.238;2022-12-20T14:46:16;8.90;78.00
38788;DHT22;24536;45.488;12.238;2022-12-20T14:48:42;8.90;78.30
38788;DHT22;24536;45.488;12.238;2022-12-20T14:51:08;8.90;78.50
38788;DHT22;24536;45.488;12.238;2022-12-20T14:53:34;8.80;78.50
38788;DHT22;24536;45.488;12.238;2022-12-20T14:56:01;8.80;78.60
38788;DHT22;24536;45.488;12.238;2022-12-20T14:58:28;8.70;78.70
38788;DHT22;24536;45.488;12.238;2022-12-20T15:01:14;8.70;78.50
38788;DHT22;24536;45.488;12.238;2022-12-20T15:03:53;8.70;78.50
38788;DHT22;24536;45.488;12.238;2022-12-20T15:06:42;8.70;78.90
38788;DHT22;24536;45.488;12.238;2022-12-20T15:09:08;8.70;78.90
38788;DHT22;24536;45.488;12.238;2022-12-20T15:11:35;8.70;79.00
38788;DHT22;24536;45.488;12.238;2022-12-20T15:14:04;8.60;78.70
38788;DHT22;24536;45.488;12.238;2022-12-20T15:16:45;8.60;79.10
38788;DHT22;24536;45.488;12.238;2022-12-20T15:21:42;8.60;78.70
38788;DHT22;24536;45.488;12.238;2022-12-20T15:24:12;8.50;78.50
38788;DHT22;24536;45.488;12.238;2022-12-20T15:26:38;8.50;79.10
38788;DHT22;24536;45.488;12.238;2022-12-20T15:29:04;8.50;79.10
38788;DHT22;24536;45.488;12.238;2022-12-20T15:31:32;8.50;79.50
38788;DHT22;24536;45.488;12.238;2022-12-20T15:33:59;8.50;79.50
38788;DHT22;24536;45.488;12.238;2022-12-20T15:36:27;8.50;79.60
38788;DHT22;24536;45.488;12.238;2022-12-20T15:38:55;8.50;79.20
38788;DHT22;24536;45.488;12.238;2022-12-20T15:41:24;8.50;79.50
38788;DHT22;24536;45.488;12.238;2022-12-20T15:43:53;8.50;79.90
38788;DHT22;24536;45.488;12.238;2022-12-20T15:46:19;8.50;79.50
38788;DHT22;24536;45.488;12.238;2022-12-20T15:48:45;8.50;79.50
38788;DHT22;24536;45.488;12.238;2022-12-20T15:51:29;8.50;79.60
38788;DHT22;24536;45.488;12.238;2022-12-20T15:53:55;8.50;79.70
38788;DHT22;24536;45.488;12.238;2022-12-20T15:56:23;8.40;79.30
38788;DHT22;24536;45.488;12.238;2022-12-20T16:01:29;8.40;79.60
38788;DHT22;24536;45.488;12.238;2022-12-20T16:03:56;8.40;80.20
38788;DHT22;24536;45.488;12.238;2022-12-20T16:06:21;8.50;80.30
38788;DHT22;24536;45.488;12.238;2022-12-20T16:08:47;8.40;80.20
38788;DHT22;24536;45.488;12.238;2022-12-20T16:11:21;8.40;80.20
38788;DHT22;24536;45.488;12.238;2022-12-20T16:16:17;8.40;80.10
38788;DHT22;24536;45.488;12.238;2022-12-20T16:18:43;8.40;80.10
38788;DHT22;24536;45.488;12.238;2022-12-20T16:21:17;8.40;80.30
38788;DHT22;24536;45.488;12.238;2022-12-20T16:26:15;8.40;80.40
38788;DHT22;24536;45.488;12.238;2022-12-20T16:28:41;8.40;81.00
38788;DHT22;24536;45.488;12.238;2022-12-20T16:31:16;8.40;81.00
38788;DHT22;24536;45.488;12.238;2022-12-20T16:33:44;8.40;80.70
38788;DHT22;24536;45.488;12.238;2022-12-20T16:36:10;8.40;81.10
38788;DHT22;24536;45.488;12.238;2022-12-20T16:38:36;8.40;83.60
38788;DHT22;24536;45.488;12.238;2022-12-20T16:41:20;8.50;82.80
38788;DHT22;24536;45.488;12.238;2022-12-20T16:43:47;8.50;82.00
38788;DHT22;24536;45.488;12.238;2022-12-20T16:46:15;8.50;81.60
38788;DHT22;24536;45.488;12.238;2022-12-20T16:48:41;8.50;81.30
38788;DHT22;24536;45.488;12.238;2022-12-20T16:53:43;8.50;81.00
38788;DHT22;24536;45.488;12.238;2022-12-20T16:56:09;8.50;83.80
38788;DHT22;24536;45.488;12.238;2022-12-20T16:58:35;8.60;82.60
38788;DHT22;24536;45.488;12.238;2022-12-20T17:01:01;8.60;83.00
38788;DHT22;24536;45.488;12.238;2022-12-20T17:03:26;8.60;82.10
38788;DHT22;24536;45.488;12.238;2022-12-20T17:05:52;8.60;81.40
38788;DHT22;24536;45.488;12.238;2022-12-20T17:08:18;8.60;81.60
38788;DHT22;24536;45.488;12.238;2022-12-20T17:10:43;8.60;81.60
38788;DHT22;24536;45.488;12.238;2022-12-20T17:13:10;8.60;81.40
38788;DHT22;24536;45.488;12.238;2022-12-20T17:15:36;8.60;81.40
38788;DHT22;24536;45.488;12.238;2022-12-20T17:18:03;8.50;80.90
38788;DHT22;24536;45.488;12.238;2022-12-20T17:20:29;8.50;81.60
38788;DHT22;24536;45.488;12.238;2022-12-20T17:25:26;8.60;81.00
38788;DHT22;24536;45.488;12.238;2022-12-20T17:27:53;8.60;81.20
38788;DHT22;24536;45.488;12.238;2022-12-20T17:30:20;8.60;81.20
38788;DHT22;24536;45.488;12.238;2022-12-20T17:32:46;8.60;81.10
38788;DHT22;24536;45.488;12.238;2022-12-20T17:35:25;8.60;81.10
38788;DHT22;24536;45.488;12.238;2022-12-20T17:37:51;8.60;81.10
38788;DHT22;24536;45.488;12.238;2022-12-20T17:40:20;8.60;81.60
38788;DHT22;24536;45.488;12.238;2022-12-20T17:42:46;8.60;81.30
38788;DHT22;24536;45.488;12.238;2022-12-20T17:45:27;8.60;81.30
38788;DHT22;24536;45.488;12.238;2022-12-20T17:47:54;8.50;80.90
38788;DHT22;24536;45.488;12.238;2022-12-20T17:50:20;8.50;80.90
38788;DHT22;24536;45.488;12.238;2022-12-20T17:52:46;8.50;80.90
38788;DHT22;24536;45.488;12.238;2022-12-20T17:55:21;8.50;81.00